Time;durP1;ratioP1;P1;durP2;ratioP2;P2;SDS_P1;SDS_P2;PMS_P1;PMS_P2;Temp;Humidity;BMP_temperature;BMP_pressure;BME280_temperature;BME280_humidity;BME280_pressure;Samples;Min_cycle;Max_cycle;Signal;HPM_P1;HPM_P2
2022/09/28 00:01:21;;;;;;;2.63;0.55;;;6.40;99.90;;;;;;5073327;28;20037;-69
2022/09/28 00:03:49;;;;;;;1.02;0.60;;;6.30;99.90;;;;;;5072859;28;20472;-69
2022/09/28 00:06:17;;;;;;;1.35;0.73;;;6.40;99.90;;;;;;5073390;28;20113;-69
2022/09/28 00:08:43;;;;;;;1.27;0.73;;;6.40;99.90;;;;;;5073102;28;20095;-69
2022/09/28 00:11:12;;;;;;;1.52;0.80;;;6.40;99.90;;;;;;5073042;28;20512;-69
2022/09/28 00:13:39;;;;;;;1.88;0.90;;;6.40;99.90;;;;;;5073251;28;20051;-69
2022/09/28 00:16:10;;;;;;;1.83;0.90;;;6.30;99.90;;;;;;5073252;28;20027;-69
2022/09/28 00:18:36;;;;;;;1.60;1.00;;;6.30;99.90;;;;;;5072830;28;20024;-69
2022/09/28 00:21:08;;;;;;;3.58;1.35;;;6.30;99.90;;;;;;5087106;28;20123;-69
2022/09/28 00:24:11;;;;;;;3.47;1.00;;;6.30;99.90;;;;;;5093122;28;20057;-69
2022/09/28 00:26:21;;;;;;;1.55;0.82;;;6.20;99.90;;;;;;5092921;28;20047;-69
2022/09/28 00:28:49;;;;;;;1.23;0.80;;;6.30;99.90;;;;;;5093112;28;20021;-69
2022/09/28 00:31:16;;;;;;;1.77;1.05;;;6.30;99.90;;;;;;5075720;28;20172;-69
2022/09/28 00:33:42;;;;;;;1.63;0.68;;;6.20;99.90;;;;;;5092766;28;20123;-69
2022/09/28 00:36:08;;;;;;;1.95;0.77;;;6.20;99.90;;;;;;5096297;28;20495;-69
2022/09/28 00:38:33;;;;;;;1.55;0.90;;;6.20;99.90;;;;;;5097095;28;20028;-69
2022/09/28 00:40:59;;;;;;;1.92;1.00;;;6.30;99.90;;;;;;5097008;28;20028;-69
2022/09/28 00:43:25;;;;;;;2.85;1.00;;;6.30;99.90;;;;;;5097238;28;20093;-69
2022/09/28 00:46:16;;;;;;;2.83;1.05;;;6.30;99.90;;;;;;5096942;28;20031;-69
2022/09/28 00:48:51;;;;;;;1.92;1.08;;;6.30;99.90;;;;;;5078362;28;20499;-69
2022/09/28 00:51:18;;;;;;;1.70;0.95;;;6.40;99.90;;;;;;5096862;28;20031;-69
2022/09/28 00:53:44;;;;;;;2.28;1.15;;;6.30;99.90;;;;;;5096763;28;20391;-69
2022/09/28 00:56:16;;;;;;;2.17;1.20;;;6.30;99.90;;;;;;5096759;28;20028;-69
2022/09/28 00:58:48;;;;;;;2.25;1.10;;;6.20;99.90;;;;;;5097034;28;20431;-69
2022/09/28 01:01:14;;;;;;;1.70;1.00;;;6.10;99.90;;;;;;5096781;28;20070;-69
2022/09/28 01:03:44;;;;;;;1.92;1.05;;;6.00;99.90;;;;;;5092999;28;20034;-69
2022/09/28 01:06:15;;;;;;;1.85;0.98;;;6.00;99.90;;;;;;5076172;28;20078;-69
2022/09/28 01:08:43;;;;;;;2.17;1.30;;;6.00;99.90;;;;;;5076202;28;20024;-69
2022/09/28 01:11:09;;;;;;;2.03;1.00;;;6.00;99.90;;;;;;5078057;28;20024;-69
2022/09/28 01:13:36;;;;;;;5.60;1.40;;;6.00;99.90;;;;;;5075517;28;20043;-69
2022/09/28 01:16:23;;;;;;;3.17;1.90;;;6.10;99.90;;;;;;5057948;28;20033;-69
2022/09/28 01:18:57;;;;;;;4.30;2.40;;;6.20;99.90;;;;;;5075608;28;20035;-69
2022/09/28 01:21:24;;;;;;;5.28;2.92;;;6.20;99.90;;;;;;5057734;28;20028;-69
2022/09/28 01:24:12;;;;;;;4.28;2.97;;;6.30;99.90;;;;;;5058057;28;20074;-69
2022/09/28 01:26:59;;;;;;;4.03;2.80;;;6.30;99.90;;;;;;5077929;28;20444;-69
2022/09/28 01:29:39;;;;;;;3.70;2.55;;;6.20;99.90;;;;;;5075485;28;20017;-69
2022/09/28 01:32:13;;;;;;;3.40;2.25;;;6.20;99.90;;;;;;5075428;28;20028;-69
2022/09/28 01:35:02;;;;;;;5.72;3.08;;;6.20;99.90;;;;;;5075559;28;20103;-69
2022/09/28 01:37:51;;;;;;;3.78;2.28;;;6.20;99.90;;;;;;5074928;28;20030;-69
2022/09/28 01:40:20;;;;;;;3.28;2.20;;;6.10;99.90;;;;;;5075148;28;20027;-69
2022/09/28 01:42:50;;;;;;;2.85;1.90;;;6.10;99.90;;;;;;5074904;28;20028;-69
2022/09/28 01:45:32;;;;;;;3.20;1.80;;;6.00;99.90;;;;;;5074398;28;20436;-69
2022/09/28 01:48:03;;;;;;;4.72;2.40;;;6.00;99.90;;;;;;5075451;28;20020;-69
2022/09/28 01:50:36;;;;;;;5.40;2.20;;;6.10;99.90;;;;;;5075462;28;20428;-69
2022/09/28 01:53:15;;;;;;;3.28;2.10;;;6.10;99.90;;;;;;5057486;28;20040;-69
2022/09/28 01:55:45;;;;;;;4.05;2.33;;;6.10;99.90;;;;;;5075352;28;20029;-69
2022/09/28 01:58:21;;;;;;;3.80;2.28;;;6.20;99.90;;;;;;5075660;28;20372;-69
2022/09/28 02:00:51;;;;;;;3.28;1.98;;;6.20;99.90;;;;;;5075475;28;20081;-69
2022/09/28 02:03:24;;;;;;;3.00;1.80;;;6.30;99.90;;;;;;5075146;28;20013;-69
2022/09/28 02:06:01;;;;;;;3.85;2.35;;;6.30;99.90;;;;;;5075529;28;20286;-69
2022/09/28 02:08:33;;;;;;;3.42;1.92;;;6.30;99.90;;;;;;5075193;28;20021;-69
2022/09/28 02:11:02;;;;;;;3.30;2.03;;;6.20;99.90;;;;;;5075388;28;20025;-69
2022/09/28 02:13:46;;;;;;;3.38;2.03;;;6.20;99.90;;;;;;5074884;28;20063;-70
2022/09/28 02:16:39;;;;;;;2.83;1.85;;;6.20;99.90;;;;;;5075346;28;20384;-69
2022/09/28 02:19:10;;;;;;;2.40;1.65;;;6.10;99.90;;;;;;5074791;28;20104;-69
2022/09/28 02:21:54;;;;;;;;;;;6.10;99.90;;;;;;5094565;28;20548;-69
2022/09/28 02:24:29;;;;;;;3.42;1.73;;;6.10;99.90;;;;;;5094984;28;19904;-69
2022/09/28 02:26:59;;;;;;;3.15;1.88;;;6.20;99.90;;;;;;5095665;28;20244;-69
2022/09/28 02:29:25;;;;;;;2.47;1.50;;;6.20;99.90;;;;;;5095042;28;20016;-69
2022/09/28 02:31:51;;;;;;;2.53;1.63;;;6.20;99.90;;;;;;5095162;28;20515;-69
2022/09/28 02:34:17;;;;;;;2.47;1.50;;;6.30;99.90;;;;;;5094535;28;20058;-69
2022/09/28 02:36:44;;;;;;;2.17;1.40;;;6.30;99.90;;;;;;5095113;28;20028;-69
2022/09/28 02:39:17;;;;;;;2.30;1.40;;;6.30;99.90;;;;;;5095055;28;20028;-69
2022/09/28 02:42:24;;;;;;;2.85;1.88;;;6.30;99.90;;;;;;5094670;28;20032;-69
2022/09/28 02:45:04;;;;;;;2.85;1.52;;;6.30;99.90;;;;;;5094612;28;20012;-69
2022/09/28 02:48:16;;;;;;;2.87;1.80;;;6.30;99.90;;;;;;5094618;28;20153;-69
2022/09/28 02:51:05;;;;;;;3.00;1.52;;;6.30;99.90;;;;;;5085096;28;20768;-69
2022/09/28 02:54:00;;;;;;;3.53;1.42;;;6.20;99.90;;;;;;5094468;28;20062;-69
2022/09/28 02:56:44;;;;;;;1.88;1.20;;;6.20;99.90;;;;;;5094725;28;20050;-69
2022/09/28 02:59:30;;;;;;;1.95;1.23;;;6.30;99.90;;;;;;5093922;28;20032;-69
2022/09/28 03:02:22;;;;;;;3.30;1.45;;;6.30;99.90;;;;;;5094352;28;20039;-69
2022/09/28 03:05:26;;;;;;;2.30;1.50;;;6.30;99.90;;;;;;5094799;28;20019;-69
2022/09/28 03:08:00;;;;;;;2.70;1.63;;;6.30;99.90;;;;;;5092397;28;20032;-69
2022/09/28 03:10:55;;;;;;;3.88;1.65;;;6.30;99.90;;;;;;5094205;28;20036;-69
2022/09/28 03:13:21;;;;;;;2.00;1.33;;;6.30;99.90;;;;;;5094198;28;20388;-70
2022/09/28 03:15:47;;;;;;;3.08;1.83;;;6.20;99.90;;;;;;5094114;28;20387;-69
2022/09/28 03:18:13;;;;;;;3.15;1.55;;;6.10;99.90;;;;;;5094114;28;20028;-69
2022/09/28 03:20:38;;;;;;;1.75;1.10;;;6.10;99.90;;;;;;5093857;28;20532;-69
2022/09/28 03:23:04;;;;;;;3.03;1.20;;;6.00;99.90;;;;;;5094125;28;20388;-69
2022/09/28 03:25:30;;;;;;;1.80;1.05;;;6.00;99.90;;;;;;5093895;28;20024;-69
2022/09/28 03:27:58;;;;;;;2.55;1.40;;;6.00;99.90;;;;;;5093878;28;20451;-69
2022/09/28 03:30:24;;;;;;;7.22;3.15;;;5.90;99.90;;;;;;5094050;28;20103;-69
2022/09/28 03:32:59;;;;;;;10.68;5.47;;;6.00;99.90;;;;;;5093892;28;20468;-69
2022/09/28 03:35:25;;;;;;;19.85;9.95;;;6.00;99.90;;;;;;5094226;28;20024;-69
2022/09/28 03:37:56;;;;;;;22.58;11.63;;;5.90;99.90;;;;;;5093957;28;20529;-69
2022/09/28 03:40:22;;;;;;;26.05;12.02;;;5.90;99.90;;;;;;5093607;28;20085;-69
2022/09/28 03:42:48;;;;;;;32.35;15.50;;;5.90;99.90;;;;;;5093583;28;20024;-69
2022/09/28 03:45:14;;;;;;;25.92;13.60;;;5.90;99.90;;;;;;5093817;28;20085;-69
2022/09/28 03:47:44;;;;;;;23.42;12.75;;;5.90;99.90;;;;;;5093534;28;20028;-69
2022/09/28 03:50:10;;;;;;;12.23;7.32;;;5.90;99.90;;;;;;5093773;28;20020;-69
2022/09/28 03:52:36;;;;;;;8.50;5.30;;;5.80;99.90;;;;;;5093779;28;20032;-68
2022/09/28 03:55:01;;;;;;;6.00;3.72;;;5.80;99.90;;;;;;5093352;28;20030;-69
2022/09/28 03:57:27;;;;;;;4.95;2.88;;;5.80;99.90;;;;;;5093449;28;20024;-69
2022/09/28 03:59:52;;;;;;;4.45;2.85;;;5.80;99.90;;;;;;5093426;28;20099;-69
2022/09/28 04:02:18;;;;;;;3.53;2.08;;;5.80;99.90;;;;;;5093338;28;20127;-69
2022/09/28 04:04:44;;;;;;;4.63;2.20;;;5.80;99.90;;;;;;5093351;28;20479;-69
2022/09/28 04:07:09;;;;;;;3.00;1.70;;;5.80;99.90;;;;;;5093894;28;20380;-69
2022/09/28 04:09:35;;;;;;;5.28;1.58;;;5.70;99.90;;;;;;5093297;28;20463;-69
2022/09/28 04:12:01;;;;;;;2.72;1.40;;;5.70;99.90;;;;;;5093301;28;20103;-69
2022/09/28 04:14:26;;;;;;;3.25;1.58;;;5.70;99.90;;;;;;5075182;28;20074;-69
2022/09/28 04:16:53;;;;;;;2.42;1.40;;;5.70;99.90;;;;;;5094317;28;20036;-70
2022/09/28 04:19:21;;;;;;;3.05;1.63;;;5.70;99.90;;;;;;5093003;28;20103;-70
2022/09/28 04:21:47;;;;;;;2.72;1.85;;;5.70;99.90;;;;;;5093406;28;20517;-70
2022/09/28 04:24:13;;;;;;;2.95;1.55;;;5.80;99.90;;;;;;5093099;28;20115;-70
2022/09/28 04:26:39;;;;;;;2.45;1.40;;;5.80;99.90;;;;;;5074985;28;20054;-69
2022/09/28 04:29:17;;;;;;;4.40;1.60;;;5.70;99.90;;;;;;5093128;28;20539;-70
2022/09/28 04:31:48;;;;;;;2.70;1.38;;;5.70;99.90;;;;;;5074940;28;20036;-70
2022/09/28 04:34:17;;;;;;;3.42;2.10;;;5.70;99.90;;;;;;5092705;28;20047;-70
2022/09/28 04:36:43;;;;;;;3.75;2.00;;;5.70;99.90;;;;;;5093286;28;20028;-70
2022/09/28 04:39:10;;;;;;;2.53;1.80;;;5.70;99.90;;;;;;5092998;28;20473;-70
2022/09/28 04:41:36;;;;;;;2.15;1.40;;;5.70;99.90;;;;;;5087638;28;20043;-69
2022/09/28 04:44:02;;;;;;;2.53;1.42;;;5.70;99.90;;;;;;5054719;28;20021;-70
2022/09/28 04:46:28;;;;;;;2.05;1.38;;;5.80;99.90;;;;;;5071344;28;20074;-69
2022/09/28 04:48:53;;;;;;;2.60;1.70;;;5.80;99.90;;;;;;5072561;28;20036;-69
2022/09/28 04:51:19;;;;;;;2.90;1.58;;;5.80;99.90;;;;;;5070275;28;20036;-70
2022/09/28 04:53:44;;;;;;;2.35;1.45;;;5.80;99.90;;;;;;5092788;28;20024;-70
2022/09/28 04:56:12;;;;;;;2.05;1.25;;;5.70;99.90;;;;;;5092857;28;20115;-70
2022/09/28 04:58:38;;;;;;;4.15;2.47;;;5.70;99.90;;;;;;5093072;28;20032;-70
2022/09/28 05:01:16;;;;;;;4.65;2.90;;;5.70;99.90;;;;;;5092758;28;20032;-70
2022/09/28 05:03:42;;;;;;;6.57;4.20;;;5.70;99.90;;;;;;5092647;28;20464;-69
2022/09/28 05:06:11;;;;;;;8.02;4.88;;;5.70;99.90;;;;;;5074614;28;20024;-70
2022/09/28 05:08:37;;;;;;;6.28;4.40;;;5.60;99.90;;;;;;5092726;28;20059;-70
2022/09/28 05:11:09;;;;;;;4.68;2.85;;;5.60;99.90;;;;;;5092994;28;20087;-70
2022/09/28 05:13:44;;;;;;;5.60;3.60;;;5.70;99.90;;;;;;5074379;28;20032;-70
2022/09/28 05:16:11;;;;;;;2.70;1.73;;;5.60;99.90;;;;;;5092706;28;20111;-70
2022/09/28 05:18:38;;;;;;;2.30;1.23;;;5.60;99.90;;;;;;5092421;28;20032;-70
2022/09/28 05:21:09;;;;;;;1.90;1.00;;;5.50;99.90;;;;;;5093784;28;20028;-70
2022/09/28 05:23:34;;;;;;;3.05;1.33;;;5.50;99.90;;;;;;5096562;28;20472;-70
2022/09/28 05:26:01;;;;;;;2.55;1.20;;;5.50;99.90;;;;;;5096213;28;20036;-70
2022/09/28 05:28:28;;;;;;;2.15;1.20;;;5.60;99.90;;;;;;5096120;28;20028;-70
2022/09/28 05:31:02;;;;;;;2.75;1.58;;;5.60;99.90;;;;;;5096123;28;20051;-70
2022/09/28 05:33:28;;;;;;;3.58;2.25;;;5.60;99.90;;;;;;5095752;28;20067;-69
2022/09/28 05:35:54;;;;;;;5.85;3.97;;;5.70;99.90;;;;;;5095930;28;20031;-70
2022/09/28 05:38:20;;;;;;;6.07;5.05;;;5.70;99.90;;;;;;5096495;28;20027;-70
2022/09/28 05:40:46;;;;;;;2.53;1.77;;;5.80;99.90;;;;;;5095841;28;20049;-70
2022/09/28 05:43:12;;;;;;;2.97;1.70;;;5.80;99.90;;;;;;5095828;28;20472;-70
2022/09/28 05:45:38;;;;;;;2.65;1.63;;;5.80;99.90;;;;;;5077719;28;20024;-70
2022/09/28 05:48:03;;;;;;;3.22;1.23;;;5.80;99.90;;;;;;5077477;28;20070;-70
2022/09/28 05:50:29;;;;;;;2.50;1.30;;;5.90;99.90;;;;;;5095644;28;20361;-70
2022/09/28 05:53:00;;;;;;;2.88;1.50;;;5.90;99.90;;;;;;5095916;28;20094;-70
2022/09/28 05:55:26;;;;;;;5.55;2.17;;;5.90;99.90;;;;;;5096004;28;20048;-70
2022/09/28 05:57:52;;;;;;;4.25;2.10;;;5.90;99.90;;;;;;5095948;28;20029;-70
2022/09/28 06:00:18;;;;;;;3.40;2.08;;;5.90;99.90;;;;;;5095689;28;20024;-70
2022/09/28 06:02:44;;;;;;;7.43;2.55;;;5.80;99.90;;;;;;5095269;28;20020;-69
2022/09/28 06:05:09;;;;;;;6.65;3.15;;;5.80;99.90;;;;;;5095456;28;20078;-70
2022/09/28 06:07:35;;;;;;;4.13;2.47;;;5.80;99.90;;;;;;5095407;28;20039;-70
2022/09/28 06:10:00;;;;;;;6.47;2.63;;;5.80;99.90;;;;;;5095440;28;20028;-70
2022/09/28 06:12:26;;;;;;;4.28;2.10;;;5.80;99.90;;;;;;5095624;28;20111;-70
2022/09/28 06:14:52;;;;;;;6.05;1.95;;;5.80;99.90;;;;;;5095231;28;20040;-70
2022/09/28 06:17:18;;;;;;;4.03;1.90;;;5.80;99.90;;;;;;5095275;28;20030;-70
2022/09/28 06:19:43;;;;;;;4.22;1.90;;;5.90;99.90;;;;;;5094941;28;20027;-70
2022/09/28 06:22:09;;;;;;;4.63;2.55;;;5.90;99.90;;;;;;5095124;28;20123;-70
2022/09/28 06:24:34;;;;;;;4.63;3.10;;;6.00;99.90;;;;;;5095042;28;20033;-70
2022/09/28 06:27:00;;;;;;;2.90;2.00;;;6.00;99.90;;;;;;5077612;28;20020;-70
2022/09/28 06:29:26;;;;;;;3.35;2.05;;;6.10;99.90;;;;;;5095024;28;20157;-70
2022/09/28 06:31:51;;;;;;;3.47;2.40;;;6.20;99.90;;;;;;5094920;28;20030;-70
2022/09/28 06:34:17;;;;;;;3.45;2.13;;;6.20;99.90;;;;;;5094705;28;20035;-69
2022/09/28 06:36:43;;;;;;;4.53;2.05;;;6.20;99.90;;;;;;5077206;28;20039;-70
2022/09/28 06:39:09;;;;;;;2.42;1.52;;;6.30;99.90;;;;;;5094837;28;20043;-70
2022/09/28 06:41:35;;;;;;;2.80;1.90;;;6.30;99.90;;;;;;5094701;28;20107;-70
2022/09/28 06:44:02;;;;;;;3.30;1.67;;;6.30;99.90;;;;;;5094831;28;20472;-70
2022/09/28 06:46:30;;;;;;;2.88;1.40;;;6.30;99.90;;;;;;5094919;28;20035;-70
2022/09/28 06:48:55;;;;;;;3.08;1.85;;;6.40;99.90;;;;;;5094534;28;20032;-70
2022/09/28 06:51:21;;;;;;;2.42;1.60;;;6.40;99.90;;;;;;5094552;28;20035;-70
2022/09/28 06:53:47;;;;;;;3.28;1.73;;;6.40;99.90;;;;;;5094441;28;20035;-70
2022/09/28 06:56:12;;;;;;;2.50;1.40;;;6.50;99.90;;;;;;5094479;28;20028;-70
2022/09/28 06:58:38;;;;;;;3.30;2.08;;;6.50;99.90;;;;;;5094444;28;20028;-70
2022/09/28 07:01:04;;;;;;;4.00;1.90;;;6.60;99.90;;;;;;5094341;28;20391;-70
2022/09/28 07:03:30;;;;;;;4.63;2.10;;;6.60;99.90;;;;;;5094384;28;20017;-69
2022/09/28 07:05:56;;;;;;;13.52;2.25;;;6.60;99.90;;;;;;5094256;28;20028;-70
2022/09/28 07:08:24;;;;;;;4.18;1.83;;;6.60;99.90;;;;;;5094208;28;20020;-70
2022/09/28 07:10:57;;;;;;;3.40;1.55;;;6.60;99.90;;;;;;5094193;28;20103;-70
2022/09/28 07:13:27;;;;;;;2.33;1.50;;;6.60;99.90;;;;;;5094441;28;20028;-70
2022/09/28 07:15:56;;;;;;;3.17;1.70;;;6.70;99.90;;;;;;5094484;28;20028;-69
2022/09/28 07:18:23;;;;;;;3.25;1.48;;;6.70;99.90;;;;;;5076546;28;20028;-70
2022/09/28 07:20:49;;;;;;;4.63;2.03;;;6.70;99.90;;;;;;5093941;28;20082;-70
2022/09/28 07:23:17;;;;;;;4.45;2.90;;;6.80;99.90;;;;;;5093889;28;20028;-70
2022/09/28 07:25:44;;;;;;;2.33;1.50;;;6.80;99.90;;;;;;5094001;28;20487;-70
2022/09/28 07:28:10;;;;;;;3.20;1.40;;;6.80;99.90;;;;;;5094179;28;20107;-70
2022/09/28 07:30:36;;;;;;;3.55;1.30;;;6.90;99.90;;;;;;5094125;28;20056;-69
2022/09/28 07:33:04;;;;;;;2.85;1.73;;;6.90;99.90;;;;;;5093596;28;20035;-70
2022/09/28 07:35:33;;;;;;;2.20;1.42;;;6.90;99.90;;;;;;5093811;28;20085;-70
2022/09/28 07:38:04;;;;;;;2.25;1.27;;;7.00;99.90;;;;;;5093787;28;20480;-70
2022/09/28 07:43:19;;;;;;;2.45;1.10;;;7.00;99.90;;;;;;5093650;28;20043;-70
2022/09/28 07:45:46;;;;;;;2.40;1.20;;;7.10;99.90;;;;;;5093626;28;20376;-70
2022/09/28 07:48:15;;;;;;;2.42;1.25;;;7.10;99.90;;;;;;5093384;28;20044;-69
2022/09/28 07:50:46;;;;;;;3.03;1.20;;;7.20;99.90;;;;;;5093537;28;20085;-70
2022/09/28 07:53:12;;;;;;;6.10;2.88;;;7.20;99.90;;;;;;5093766;28;20032;-69
2022/09/28 07:55:37;;;;;;;6.65;2.00;;;7.20;99.90;;;;;;5094033;28;20388;-69
2022/09/28 07:58:03;;;;;;;2.28;1.40;;;7.30;99.90;;;;;;5093449;28;20472;-70
2022/09/28 08:00:31;;;;;;;2.15;1.27;;;7.40;99.90;;;;;;5093894;28;20032;-69
2022/09/28 08:03:00;;;;;;;4.25;1.85;;;7.40;99.90;;;;;;5093743;28;20474;-69
2022/09/28 08:05:31;;;;;;;4.25;2.00;;;7.40;99.90;;;;;;5093658;28;20080;-69
2022/09/28 08:07:58;;;;;;;4.57;2.00;;;7.40;99.90;;;;;;5093956;28;20025;-69
2022/09/28 08:10:25;;;;;;;3.47;1.90;;;7.50;99.90;;;;;;5093606;28;20029;-69
2022/09/28 08:12:55;;;;;;;3.10;2.05;;;7.50;99.90;;;;;;5093423;28;20032;-70
2022/09/28 08:15:21;;;;;;;3.17;2.13;;;7.60;99.90;;;;;;5093529;28;20032;-70
2022/09/28 08:17:47;;;;;;;30.10;14.63;;;7.60;99.90;;;;;;5093235;28;20380;-70
2022/09/28 08:23:05;;;;;;;3.75;2.33;;;7.70;99.90;;;;;;5093659;28;20088;-69
2022/09/28 08:25:32;;;;;;;5.22;2.72;;;7.80;99.90;;;;;;5093436;28;20016;-69
2022/09/28 08:27:58;;;;;;;3.10;1.80;;;7.80;99.90;;;;;;5075008;28;20115;-69
2022/09/28 08:30:25;;;;;;;5.78;2.70;;;7.90;99.90;;;;;;5093165;28;20020;-70
2022/09/28 08:32:51;;;;;;;4.30;1.80;;;7.90;99.90;;;;;;5093071;28;20025;-69
2022/09/28 08:35:16;;;;;;;5.70;2.40;;;8.00;99.90;;;;;;5092856;28;20395;-69
2022/09/28 08:37:42;;;;;;;2.80;1.48;;;8.00;99.90;;;;;;5093331;28;20379;-69
2022/09/28 08:40:17;;;;;;;4.00;1.50;;;8.00;99.90;;;;;;5093067;28;20036;-69
2022/09/28 08:42:44;;;;;;;3.47;1.70;;;8.10;99.90;;;;;;5093223;28;20020;-69
2022/09/28 08:45:18;;;;;;;2.78;1.80;;;8.10;99.90;;;;;;5093007;28;20027;-69
2022/09/28 08:50:53;;;;;;;4.63;2.40;;;8.20;99.90;;;;;;5093473;28;20031;-69
2022/09/28 08:53:41;;;;;;;2.85;1.20;;;8.20;99.90;;;;;;5092909;28;20102;-69
2022/09/28 08:56:17;;;;;;;4.63;2.00;;;8.30;99.90;;;;;;5094397;28;20024;-69
2022/09/28 08:58:48;;;;;;;4.38;2.25;;;8.40;99.90;;;;;;5097098;28;20024;-69
2022/09/28 09:01:18;;;;;;;5.38;2.17;;;8.50;99.90;;;;;;5097274;28;20042;-69
2022/09/28 09:03:45;;;;;;;2.35;1.33;;;8.60;99.90;;;;;;5097272;28;20025;-69
2022/09/28 09:06:45;;;;;;;2.13;1.38;;;8.70;99.90;;;;;;5096692;28;20107;-69
2022/09/28 09:09:42;;;;;;;2.08;1.08;;;8.70;99.90;;;;;;5096942;28;20372;-69
2022/09/28 09:12:17;;;;;;;3.78;1.50;;;8.80;99.90;;;;;;5096570;28;20099;-69
2022/09/28 09:15:18;;;;;;;2.78;1.40;;;9.00;99.90;;;;;;5096395;28;20040;-69
2022/09/28 09:18:06;;;;;;;2.35;1.15;;;9.00;99.90;;;;;;5096503;28;20422;-69
2022/09/28 09:20:35;;;;;;;2.22;1.05;;;9.00;99.90;;;;;;5096051;28;20024;-69
2022/09/28 09:23:13;;;;;;;3.88;1.13;;;9.00;99.90;;;;;;5096269;28;20024;-69
2022/09/28 09:25:53;;;;;;;3.00;1.50;;;9.10;99.90;;;;;;5096619;28;20020;-69
2022/09/28 09:28:35;;;;;;;3.72;1.88;;;9.20;99.90;;;;;;5096557;28;20044;-69
2022/09/28 09:31:22;;;;;;;4.53;2.10;;;9.20;99.90;;;;;;5096204;28;20028;-69
2022/09/28 09:33:54;;;;;;;3.95;1.85;;;9.30;99.90;;;;;;5096080;28;20069;-70
2022/09/28 09:36:50;;;;;;;5.15;2.10;;;9.30;99.90;;;;;;5096007;28;20028;-69
2022/09/28 09:39:40;;;;;;;5.28;2.03;;;9.30;99.90;;;;;;5077834;28;20024;-69
2022/09/28 09:42:28;;;;;;;3.00;1.98;;;9.40;99.90;;;;;;5096198;28;20555;-69
2022/09/28 09:45:12;;;;;;;4.95;1.90;;;9.50;99.90;;;;;;5095863;28;20031;-70
2022/09/28 09:47:47;;;;;;;5.18;1.98;;;9.50;99.90;;;;;;5095866;28;20464;-69
2022/09/28 09:50:28;;;;;;;3.70;2.35;;;9.60;99.90;;;;;;5095619;28;20103;-69
2022/09/28 09:52:59;;;;;;;3.67;1.90;;;9.70;99.90;;;;;;5095750;28;20020;-69
2022/09/28 09:55:45;;;;;;;5.47;2.47;;;9.80;99.90;;;;;;5096067;28;20028;-69
2022/09/28 09:58:20;;;;;;;3.42;1.85;;;9.80;99.90;;;;;;5095684;28;20031;-69
2022/09/28 10:00:51;;;;;;;2.63;1.40;;;9.90;99.90;;;;;;5095528;28;20024;-69
2022/09/28 10:03:28;;;;;;;2.13;1.25;;;10.00;99.90;;;;;;5095544;28;20102;-69
2022/09/28 10:06:15;;;;;;;2.75;1.27;;;10.00;99.90;;;;;;5095742;28;20472;-69
2022/09/28 10:08:47;;;;;;;2.08;1.20;;;10.10;99.90;;;;;;5095517;28;20028;-70
2022/09/28 10:11:28;;;;;;;2.13;0.88;;;10.20;99.90;;;;;;5095686;28;20020;-70
2022/09/28 10:13:54;;;;;;;;;;;10.30;99.90;;;;;;5095589;28;20028;-70
2022/09/28 10:16:19;;;;;;;1.25;0.70;;;10.40;99.90;;;;;;5095844;28;20295;-70
2022/09/28 10:18:46;;;;;;;2.30;0.65;;;10.50;99.90;;;;;;5095037;28;20038;-69
2022/09/28 10:21:17;;;;;;;2.70;1.00;;;10.50;99.90;;;;;;5095030;28;20028;-70
2022/09/28 10:23:44;;;;;;;2.03;0.90;;;10.60;99.90;;;;;;5095071;28;20110;-70
2022/09/28 10:26:22;;;;;;;1.88;0.80;;;10.70;99.90;;;;;;5095412;28;20031;-70
2022/09/28 10:28:58;;;;;;;1.70;0.80;;;10.80;99.90;;;;;;5095380;28;20473;-70
2022/09/28 10:31:42;;;;;;;2.67;0.90;;;10.90;99.90;;;;;;5095017;28;20031;-70
2022/09/28 10:34:13;;;;;;;2.40;1.00;;;11.00;99.90;;;;;;5094698;28;20476;-70
2022/09/28 10:37:03;;;;;;;3.42;0.98;;;11.00;99.90;;;;;;5095209;28;20028;-70
2022/09/28 10:39:29;;;;;;;4.65;1.30;;;11.00;99.90;;;;;;5089519;28;20048;-70
2022/09/28 10:41:57;;;;;;;1.33;0.80;;;11.00;99.90;;;;;;5094752;28;20073;-70
2022/09/28 10:44:24;;;;;;;2.95;1.17;;;11.00;99.90;;;;;;5094700;28;20107;-70
2022/09/28 10:47:01;;;;;;;3.95;1.10;;;11.00;99.90;;;;;;5094949;28;20494;-70
2022/09/28 10:49:39;;;;;;;1.80;1.00;;;11.00;99.90;;;;;;5094578;28;20099;-70
2022/09/28 10:52:31;;;;;;;3.25;0.82;;;11.20;99.90;;;;;;5094619;28;20472;-69
2022/09/28 10:54:57;;;;;;;;;;;11.20;99.90;;;;;;5094893;28;20177;-70
2022/09/28 10:57:34;;;;;;;2.63;0.90;;;11.30;99.90;;;;;;5094470;28;19911;-70
2022/09/28 11:00:01;;;;;;;1.23;0.63;;;11.30;99.90;;;;;;5094522;28;20037;-70
2022/09/28 11:02:34;;;;;;;2.15;0.95;;;11.40;99.90;;;;;;5094530;28;20025;-70
2022/09/28 11:05:02;;;;;;;2.22;0.98;;;11.50;99.90;;;;;;5094031;28;20028;-70
2022/09/28 11:07:31;;;;;;;2.45;1.23;;;11.40;99.90;;;;;;5076022;28;20102;-70
2022/09/28 11:09:57;;;;;;;2.80;1.45;;;11.40;99.90;;;;;;5094256;28;20107;-70
2022/09/28 11:12:31;;;;;;;1.88;1.10;;;11.50;99.90;;;;;;5094476;28;20028;-70
2022/09/28 11:15:03;;;;;;;2.30;1.08;;;11.40;99.90;;;;;;5094015;28;20132;-70
2022/09/28 11:17:37;;;;;;;2.40;1.20;;;11.40;99.90;;;;;;5094331;28;20034;-70
2022/09/28 11:20:22;;;;;;;6.70;2.50;;;11.40;99.90;;;;;;5093545;28;20043;-70
2022/09/28 11:22:47;;;;;;;3.92;1.73;;;11.40;99.90;;;;;;5075723;28;20471;-70
2022/09/28 11:25:16;;;;;;;3.22;1.38;;;11.30;99.90;;;;;;5094511;28;20020;-70
2022/09/28 11:27:54;;;;;;;7.15;3.53;;;11.30;99.90;;;;;;5093958;28;20020;-70
2022/09/28 11:30:49;;;;;;;16.20;7.00;;;11.30;99.90;;;;;;5094150;28;20052;-70
2022/09/28 11:33:21;;;;;;;8.65;3.58;;;11.30;99.90;;;;;;5088956;28;20024;-70
2022/09/28 11:36:11;;;;;;;5.72;2.08;;;11.30;99.90;;;;;;5093584;28;20027;-70
2022/09/28 11:39:07;;;;;;;3.25;1.73;;;11.40;99.90;;;;;;5093650;28;20020;-70
2022/09/28 11:41:42;;;;;;;5.00;1.80;;;11.50;99.90;;;;;;5093628;28;20032;-70
2022/09/28 11:44:24;;;;;;;4.32;1.92;;;11.60;99.90;;;;;;5093838;28;20013;-70
2022/09/28 11:46:58;;;;;;;;;;;11.70;99.90;;;;;;5094325;28;20497;-70
2022/09/28 11:49:44;;;;;;;2.08;1.23;;;11.80;99.90;;;;;;5093330;28;19904;-70
2022/09/28 11:52:21;;;;;;;2.28;1.00;;;11.80;99.90;;;;;;5093811;28;20376;-70
2022/09/28 11:55:00;;;;;;;2.38;1.20;;;11.90;99.90;;;;;;5093464;28;20420;-70
2022/09/28 11:57:35;;;;;;;2.53;1.20;;;11.90;99.90;;;;;;5093491;28;20020;-70
2022/09/28 12:00:09;;;;;;;3.55;1.20;;;11.90;99.90;;;;;;5093687;28;20028;-70
2022/09/28 12:03:08;;;;;;;2.55;1.10;;;11.90;99.90;;;;;;5093355;28;20028;-70
2022/09/28 12:06:04;;;;;;;3.10;1.30;;;11.90;99.90;;;;;;5093124;28;20468;-70
2022/09/28 12:08:36;;;;;;;3.30;1.10;;;11.90;99.90;;;;;;5091037;28;20064;-71
2022/09/28 12:11:11;;;;;;;10.35;4.65;;;12.00;99.90;;;;;;5093562;28;20035;-71
2022/09/28 12:13:46;;;;;;;5.88;2.90;;;12.10;99.90;;;;;;5093446;28;20035;-71
2022/09/28 12:16:34;;;;;;;3.75;1.77;;;12.20;99.90;;;;;;5093562;28;20031;-71
2022/09/28 12:19:07;;;;;;;2.45;1.23;;;12.30;99.90;;;;;;5092941;28;20114;-70
2022/09/28 12:21:41;;;;;;;1.80;0.95;;;12.40;99.90;;;;;;5093051;28;20472;-71
2022/09/28 12:24:25;;;;;;;2.50;1.23;;;12.50;99.90;;;;;;5093034;28;20028;-71
2022/09/28 12:27:03;;;;;;;1.70;0.73;;;12.60;99.90;;;;;;5093466;28;20031;-71
2022/09/28 12:29:42;;;;;;;1.17;0.70;;;12.60;99.90;;;;;;5093770;28;20021;-71
2022/09/28 12:32:37;;;;;;;1.08;0.57;;;12.70;99.90;;;;;;5097560;28;20043;-71
2022/09/28 12:35:14;;;;;;;1.90;0.90;;;12.70;99.90;;;;;;5078784;28;20024;-70
2022/09/28 12:37:55;;;;;;;1.10;0.55;;;12.80;99.90;;;;;;5097514;28;20063;-71
2022/09/28 12:40:29;;;;;;;1.17;0.60;;;12.80;99.90;;;;;;5079344;28;20353;-70
2022/09/28 12:43:32;;;;;;;1.48;0.80;;;12.90;99.90;;;;;;5097000;28;20051;-71
2022/09/28 12:46:03;;;;;;;2.00;1.13;;;13.00;99.90;;;;;;5062960;28;20522;-70
2022/09/28 12:48:50;;;;;;;3.47;1.10;;;13.10;99.90;;;;;;5096931;28;20106;-71
2022/09/28 12:51:18;;;;;;;1.33;0.80;;;13.20;99.90;;;;;;5096912;28;20492;-70
2022/09/28 12:53:56;;;;;;;1.42;0.68;;;13.10;99.90;;;;;;5097153;28;20028;-70
2022/09/28 12:56:44;;;;;;;2.42;0.65;;;13.10;99.90;;;;;;5096860;28;20106;-71
2022/09/28 12:59:24;;;;;;;9.50;6.50;;;13.10;99.90;;;;;;5097079;28;20035;-70
2022/09/28 13:02:28;;;;;;;7.60;4.13;;;13.20;99.90;;;;;;5097453;28;20016;-71
2022/09/28 13:05:21;;;;;;;2.92;1.40;;;13.30;99.90;;;;;;5081082;28;20032;-70
2022/09/28 13:08:05;;;;;;;2.22;1.40;;;13.30;99.90;;;;;;5096602;28;20491;-70
2022/09/28 13:10:53;;;;;;;2.20;1.00;;;13.30;99.90;;;;;;5096494;28;20051;-71
2022/09/28 13:13:28;;;;;;;2.47;0.80;;;13.30;99.90;;;;;;5096325;28;20031;-71
2022/09/28 13:16:05;;;;;;;2.15;1.00;;;13.40;99.90;;;;;;5096475;28;20016;-71
2022/09/28 13:18:32;;;;;;;1.27;0.73;;;13.40;99.90;;;;;;5096984;28;20144;-70
2022/09/28 13:21:29;;;;;;;1.40;0.80;;;13.40;99.90;;;;;;5096038;28;20365;-70
2022/09/28 13:23:58;;;;;;;1.90;1.30;;;13.30;99.90;;;;;;5096304;28;20075;-70
2022/09/28 13:26:36;;;;;;;1.90;1.00;;;13.40;99.90;;;;;;5096538;28;20026;-70
2022/09/28 13:29:14;;;;;;;1.50;0.80;;;13.40;99.90;;;;;;5096518;28;20023;-70
2022/09/28 13:31:57;;;;;;;0.88;0.38;;;13.40;99.90;;;;;;5096685;28;20095;-69
2022/09/28 13:34:26;;;;;;;1.15;0.55;;;13.40;99.90;;;;;;5096097;28;20020;-70